sensor_id;sensor_type;location;lat;lon;timestamp;P1;durP1;ratioP1;P2;durP2;ratioP2
73023;SDS011;72676;47.526;8.538;2023-10-31T00:01:57;3.70;;;1.40;;
73023;SDS011;72676;47.526;8.538;2023-10-31T00:04:23;3.30;;;1.40;;
73023;SDS011;72676;47.526;8.538;2023-10-31T00:06:50;3.60;;;1.40;;
73023;SDS011;72676;47.526;8.538;2023-10-31T00:09:16;4.60;;;1.80;;
73023;SDS011;72676;47.526;8.538;2023-10-31T00:11:42;3.50;;;1.30;;
73023;SDS011;72676;47.526;8.538;2023-10-31T00:14:10;3.63;;;1.50;;
73023;SDS011;72676;47.526;8.538;2023-10-31T00:16:56;4.00;;;1.73;;
73023;SDS011;72676;47.526;8.538;2023-10-31T00:19:23;3.70;;;1.27;;
73023;SDS011;72676;47.526;8.538;2023-10-31T00:21:50;5.00;;;1.63;;
73023;SDS011;72676;47.526;8.538;2023-10-31T00:24:17;4.50;;;1.50;;
73023;SDS011;72676;47.526;8.538;2023-10-31T00:26:43;3.03;;;1.10;;
73023;SDS011;72676;47.526;8.538;2023-10-31T00:29:09;4.50;;;1.53;;
73023;SDS011;72676;47.526;8.538;2023-10-31T00:31:36;4.03;;;1.40;;
73023;SDS011;72676;47.526;8.538;2023-10-31T00:34:07;3.77;;;1.57;;
73023;SDS011;72676;47.526;8.538;2023-10-31T00:36:34;3.70;;;1.50;;
73023;SDS011;72676;47.526;8.538;2023-10-31T00:39:00;4.40;;;1.97;;
73023;SDS011;72676;47.526;8.538;2023-10-31T00:41:27;5.30;;;1.30;;
73023;SDS011;72676;47.526;8.538;2023-10-31T00:43:53;4.90;;;1.23;;
73023;SDS011;72676;47.526;8.538;2023-10-31T00:46:20;3.53;;;1.17;;
73023;SDS011;72676;47.526;8.538;2023-10-31T00:48:46;3.63;;;1.00;;
73023;SDS011;72676;47.526;8.538;2023-10-31T00:51:14;3.50;;;1.20;;
73023;SDS011;72676;47.526;8.538;2023-10-31T00:53:40;3.23;;;1.30;;
73023;SDS011;72676;47.526;8.538;2023-10-31T00:56:07;7.63;;;1.60;;
73023;SDS011;72676;47.526;8.538;2023-10-31T00:58:33;4.40;;;1.57;;
73023;SDS011;72676;47.526;8.538;2023-10-31T01:01:00;3.30;;;1.30;;
73023;SDS011;72676;47.526;8.538;2023-10-31T01:03:26;4.20;;;1.23;;
73023;SDS011;72676;47.526;8.538;2023-10-31T01:05:53;4.63;;;1.43;;
73023;SDS011;72676;47.526;8.538;2023-10-31T01:08:20;6.20;;;1.57;;
73023;SDS011;72676;47.526;8.538;2023-10-31T01:10:46;5.10;;;1.80;;
73023;SDS011;72676;47.526;8.538;2023-10-31T01:13:13;4.13;;;1.70;;
73023;SDS011;72676;47.526;8.538;2023-10-31T01:15:39;3.60;;;1.80;;
73023;SDS011;72676;47.526;8.538;2023-10-31T01:18:05;4.03;;;1.83;;
73023;SDS011;72676;47.526;8.538;2023-10-31T01:20:32;3.60;;;1.77;;
73023;SDS011;72676;47.526;8.538;2023-10-31T01:22:58;5.97;;;1.87;;
73023;SDS011;72676;47.526;8.538;2023-10-31T01:25:25;4.50;;;1.90;;
73023;SDS011;72676;47.526;8.538;2023-10-31T01:27:51;4.10;;;1.57;;
73023;SDS011;72676;47.526;8.538;2023-10-31T01:30:17;4.10;;;1.90;;
73023;SDS011;72676;47.526;8.538;2023-10-31T01:32:44;4.40;;;1.80;;
73023;SDS011;72676;47.526;8.538;2023-10-31T01:35:10;4.20;;;1.80;;
73023;SDS011;72676;47.526;8.538;2023-10-31T01:37:37;4.27;;;1.97;;
73023;SDS011;72676;47.526;8.538;2023-10-31T01:40:04;4.80;;;1.83;;
73023;SDS011;72676;47.526;8.538;2023-10-31T01:42:31;4.17;;;1.53;;
73023;SDS011;72676;47.526;8.538;2023-10-31T01:44:57;3.90;;;1.60;;
73023;SDS011;72676;47.526;8.538;2023-10-31T01:47:23;4.60;;;1.77;;
73023;SDS011;72676;47.526;8.538;2023-10-31T01:49:51;4.00;;;1.70;;
73023;SDS011;72676;47.526;8.538;2023-10-31T01:52:18;3.87;;;1.80;;
73023;SDS011;72676;47.526;8.538;2023-10-31T01:54:44;3.70;;;1.80;;
73023;SDS011;72676;47.526;8.538;2023-10-31T01:57:11;6.00;;;2.00;;
73023;SDS011;72676;47.526;8.538;2023-10-31T01:59:37;4.60;;;1.87;;
73023;SDS011;72676;47.526;8.538;2023-10-31T02:02:05;4.13;;;2.17;;
73023;SDS011;72676;47.526;8.538;2023-10-31T02:04:32;4.40;;;1.90;;
73023;SDS011;72676;47.526;8.538;2023-10-31T02:06:59;6.40;;;2.00;;
73023;SDS011;72676;47.526;8.538;2023-10-31T02:09:25;9.33;;;2.00;;
73023;SDS011;72676;47.526;8.538;2023-10-31T02:11:53;4.87;;;2.03;;
73023;SDS011;72676;47.526;8.538;2023-10-31T02:14:22;4.60;;;2.30;;
73023;SDS011;72676;47.526;8.538;2023-10-31T02:16:49;5.63;;;2.40;;
73023;SDS011;72676;47.526;8.538;2023-10-31T02:19:17;4.90;;;2.40;;
73023;SDS011;72676;47.526;8.538;2023-10-31T02:21:46;4.53;;;2.50;;
73023;SDS011;72676;47.526;8.538;2023-10-31T02:24:12;8.90;;;2.23;;
73023;SDS011;72676;47.526;8.538;2023-10-31T02:26:39;5.53;;;2.80;;
73023;SDS011;72676;47.526;8.538;2023-10-31T02:29:05;5.83;;;2.20;;
73023;SDS011;72676;47.526;8.538;2023-10-31T02:31:33;5.93;;;2.67;;
73023;SDS011;72676;47.526;8.538;2023-10-31T02:33:59;4.73;;;2.00;;
73023;SDS011;72676;47.526;8.538;2023-10-31T02:36:26;15.00;;;2.90;;
73023;SDS011;72676;47.526;8.538;2023-10-31T02:38:52;5.57;;;2.20;;
73023;SDS011;72676;47.526;8.538;2023-10-31T02:41:19;6.97;;;2.10;;
73023;SDS011;72676;47.526;8.538;2023-10-31T02:43:45;6.13;;;1.77;;
73023;SDS011;72676;47.526;8.538;2023-10-31T02:46:12;9.50;;;2.33;;
73023;SDS011;72676;47.526;8.538;2023-10-31T02:48:40;5.00;;;1.80;;
73023;SDS011;72676;47.526;8.538;2023-10-31T02:51:08;4.07;;;1.73;;
73023;SDS011;72676;47.526;8.538;2023-10-31T02:53:35;5.77;;;1.90;;
73023;SDS011;72676;47.526;8.538;2023-10-31T02:56:02;6.40;;;1.53;;
73023;SDS011;72676;47.526;8.538;2023-10-31T02:58:29;3.70;;;1.50;;
73023;SDS011;72676;47.526;8.538;2023-10-31T03:00:55;8.47;;;1.50;;
73023;SDS011;72676;47.526;8.538;2023-10-31T03:03:22;4.07;;;1.70;;
73023;SDS011;72676;47.526;8.538;2023-10-31T03:05:48;11.07;;;1.60;;
73023;SDS011;72676;47.526;8.538;2023-10-31T03:08:15;4.30;;;1.37;;
73023;SDS011;72676;47.526;8.538;2023-10-31T03:10:47;7.93;;;1.70;;
73023;SDS011;72676;47.526;8.538;2023-10-31T03:13:16;3.10;;;1.30;;
73023;SDS011;72676;47.526;8.538;2023-10-31T03:15:45;7.27;;;1.60;;
73023;SDS011;72676;47.526;8.538;2023-10-31T03:18:11;4.17;;;1.27;;
73023;SDS011;72676;47.526;8.538;2023-10-31T03:20:40;4.20;;;1.40;;
73023;SDS011;72676;47.526;8.538;2023-10-31T03:23:09;4.93;;;1.43;;
73023;SDS011;72676;47.526;8.538;2023-10-31T03:25:36;3.50;;;1.23;;
73023;SDS011;72676;47.526;8.538;2023-10-31T03:28:02;5.67;;;1.30;;
73023;SDS011;72676;47.526;8.538;2023-10-31T03:30:29;4.17;;;1.33;;
73023;SDS011;72676;47.526;8.538;2023-10-31T03:32:55;4.40;;;1.00;;
73023;SDS011;72676;47.526;8.538;2023-10-31T03:35:22;4.10;;;1.20;;
73023;SDS011;72676;47.526;8.538;2023-10-31T03:37:48;3.37;;;0.90;;
73023;SDS011;72676;47.526;8.538;2023-10-31T03:40:15;5.50;;;0.97;;
73023;SDS011;72676;47.526;8.538;2023-10-31T03:42:41;5.17;;;1.17;;
73023;SDS011;72676;47.526;8.538;2023-10-31T03:45:08;4.70;;;1.00;;
73023;SDS011;72676;47.526;8.538;2023-10-31T03:47:35;4.60;;;0.90;;
73023;SDS011;72676;47.526;8.538;2023-10-31T03:50:01;5.73;;;1.33;;
73023;SDS011;72676;47.526;8.538;2023-10-31T03:52:28;5.40;;;1.17;;
73023;SDS011;72676;47.526;8.538;2023-10-31T03:54:54;3.90;;;0.90;;
73023;SDS011;72676;47.526;8.538;2023-10-31T03:57:20;5.13;;;1.13;;
73023;SDS011;72676;47.526;8.538;2023-10-31T03:59:47;8.13;;;1.30;;
73023;SDS011;72676;47.526;8.538;2023-10-31T04:02:13;4.67;;;1.30;;
73023;SDS011;72676;47.526;8.538;2023-10-31T04:04:40;6.73;;;1.00;;
73023;SDS011;72676;47.526;8.538;2023-10-31T04:07:06;7.17;;;1.43;;
73023;SDS011;72676;47.526;8.538;2023-10-31T04:09:33;4.57;;;1.30;;
73023;SDS011;72676;47.526;8.538;2023-10-31T04:11:59;9.13;;;1.27;;
73023;SDS011;72676;47.526;8.538;2023-10-31T04:14:26;5.30;;;1.13;;
73023;SDS011;72676;47.526;8.538;2023-10-31T04:16:52;9.73;;;1.57;;
73023;SDS011;72676;47.526;8.538;2023-10-31T04:19:19;4.50;;;1.17;;
73023;SDS011;72676;47.526;8.538;2023-10-31T04:21:45;6.43;;;1.37;;
73023;SDS011;72676;47.526;8.538;2023-10-31T04:24:12;13.47;;;1.70;;
73023;SDS011;72676;47.526;8.538;2023-10-31T04:26:39;4.97;;;1.30;;
73023;SDS011;72676;47.526;8.538;2023-10-31T04:29:07;4.50;;;1.63;;
73023;SDS011;72676;47.526;8.538;2023-10-31T04:31:33;6.87;;;1.83;;
73023;SDS011;72676;47.526;8.538;2023-10-31T04:34:09;5.57;;;1.77;;
73023;SDS011;72676;47.526;8.538;2023-10-31T04:36:36;6.93;;;1.93;;
73023;SDS011;72676;47.526;8.538;2023-10-31T04:39:02;4.33;;;1.33;;
73023;SDS011;72676;47.526;8.538;2023-10-31T04:41:29;6.70;;;1.80;;
73023;SDS011;72676;47.526;8.538;2023-10-31T04:43:55;5.90;;;2.00;;
73023;SDS011;72676;47.526;8.538;2023-10-31T04:46:22;3.83;;;1.70;;
73023;SDS011;72676;47.526;8.538;2023-10-31T04:48:51;8.90;;;2.00;;
73023;SDS011;72676;47.526;8.538;2023-10-31T04:51:18;4.53;;;1.80;;
73023;SDS011;72676;47.526;8.538;2023-10-31T04:53:44;3.30;;;1.50;;
73023;SDS011;72676;47.526;8.538;2023-10-31T04:56:11;7.03;;;1.50;;
73023;SDS011;72676;47.526;8.538;2023-10-31T04:58:43;6.10;;;1.63;;
73023;SDS011;72676;47.526;8.538;2023-10-31T05:01:11;7.47;;;1.73;;
73023;SDS011;72676;47.526;8.538;2023-10-31T05:03:38;3.83;;;1.47;;
73023;SDS011;72676;47.526;8.538;2023-10-31T05:06:05;5.93;;;1.53;;
73023;SDS011;72676;47.526;8.538;2023-10-31T05:08:32;3.50;;;1.10;;
73023;SDS011;72676;47.526;8.538;2023-10-31T05:10:58;3.83;;;1.53;;
73023;SDS011;72676;47.526;8.538;2023-10-31T05:13:25;4.60;;;1.87;;
73023;SDS011;72676;47.526;8.538;2023-10-31T05:15:52;5.10;;;1.27;;
73023;SDS011;72676;47.526;8.538;2023-10-31T05:18:18;5.73;;;1.70;;
73023;SDS011;72676;47.526;8.538;2023-10-31T05:20:45;4.17;;;1.27;;
73023;SDS011;72676;47.526;8.538;2023-10-31T05:23:11;4.20;;;1.50;;
73023;SDS011;72676;47.526;8.538;2023-10-31T05:25:38;8.23;;;1.70;;
73023;SDS011;72676;47.526;8.538;2023-10-31T05:28:04;5.30;;;1.50;;
73023;SDS011;72676;47.526;8.538;2023-10-31T05:30:31;7.37;;;1.73;;
73023;SDS011;72676;47.526;8.538;2023-10-31T05:32:57;3.60;;;1.40;;
73023;SDS011;72676;47.526;8.538;2023-10-31T05:35:24;5.70;;;1.50;;
73023;SDS011;72676;47.526;8.538;2023-10-31T05:37:51;6.87;;;1.70;;
73023;SDS011;72676;47.526;8.538;2023-10-31T05:40:18;6.50;;;1.53;;
73023;SDS011;72676;47.526;8.538;2023-10-31T05:42:44;4.40;;;1.27;;
73023;SDS011;72676;47.526;8.538;2023-10-31T05:45:11;4.20;;;1.60;;
73023;SDS011;72676;47.526;8.538;2023-10-31T05:47:37;4.73;;;1.20;;
73023;SDS011;72676;47.526;8.538;2023-10-31T05:50:04;4.90;;;1.67;;
73023;SDS011;72676;47.526;8.538;2023-10-31T05:52:32;3.90;;;1.07;;
73023;SDS011;72676;47.526;8.538;2023-10-31T05:54:58;10.70;;;1.67;;
73023;SDS011;72676;47.526;8.538;2023-10-31T05:57:25;5.30;;;1.30;;
73023;SDS011;72676;47.526;8.538;2023-10-31T05:59:52;5.93;;;1.53;;
73023;SDS011;72676;47.526;8.538;2023-10-31T06:02:18;9.53;;;1.63;;
73023;SDS011;72676;47.526;8.538;2023-10-31T06:04:45;6.30;;;1.50;;
73023;SDS011;72676;47.526;8.538;2023-10-31T06:07:11;3.17;;;1.53;;
73023;SDS011;72676;47.526;8.538;2023-10-31T06:09:38;5.70;;;1.50;;
73023;SDS011;72676;47.526;8.538;2023-10-31T06:12:04;4.47;;;1.33;;
73023;SDS011;72676;47.526;8.538;2023-10-31T06:14:31;4.67;;;1.43;;
73023;SDS011;72676;47.526;8.538;2023-10-31T06:16:58;3.57;;;1.20;;
73023;SDS011;72676;47.526;8.538;2023-10-31T06:19:25;6.10;;;1.40;;
73023;SDS011;72676;47.526;8.538;2023-10-31T06:21:52;4.30;;;1.63;;
73023;SDS011;72676;47.526;8.538;2023-10-31T06:24:18;10.13;;;1.80;;
73023;SDS011;72676;47.526;8.538;2023-10-31T06:26:45;9.83;;;1.53;;
73023;SDS011;72676;47.526;8.538;2023-10-31T06:29:11;8.03;;;1.53;;
73023;SDS011;72676;47.526;8.538;2023-10-31T06:31:58;7.07;;;1.20;;
73023;SDS011;72676;47.526;8.538;2023-10-31T06:34:24;3.43;;;1.30;;
73023;SDS011;72676;47.526;8.538;2023-10-31T06:36:51;5.13;;;1.20;;
73023;SDS011;72676;47.526;8.538;2023-10-31T06:39:18;4.73;;;1.30;;
73023;SDS011;72676;47.526;8.538;2023-10-31T06:41:44;5.43;;;1.33;;
73023;SDS011;72676;47.526;8.538;2023-10-31T06:44:11;4.97;;;1.20;;
73023;SDS011;72676;47.526;8.538;2023-10-31T06:46:38;7.27;;;1.40;;
73023;SDS011;72676;47.526;8.538;2023-10-31T06:49:04;9.83;;;1.60;;
73023;SDS011;72676;47.526;8.538;2023-10-31T06:51:31;8.17;;;2.10;;
73023;SDS011;72676;47.526;8.538;2023-10-31T06:53:57;9.70;;;1.60;;
73023;SDS011;72676;47.526;8.538;2023-10-31T06:56:24;9.90;;;1.70;;
73023;SDS011;72676;47.526;8.538;2023-10-31T06:58:51;5.93;;;1.53;;
73023;SDS011;72676;47.526;8.538;2023-10-31T07:01:17;13.63;;;1.53;;
73023;SDS011;72676;47.526;8.538;2023-10-31T07:03:45;9.20;;;1.40;;
73023;SDS011;72676;47.526;8.538;2023-10-31T07:06:13;7.83;;;1.40;;
73023;SDS011;72676;47.526;8.538;2023-10-31T07:08:40;12.30;;;2.43;;
73023;SDS011;72676;47.526;8.538;2023-10-31T07:11:06;7.30;;;1.87;;
73023;SDS011;72676;47.526;8.538;2023-10-31T07:13:32;3.53;;;1.47;;
73023;SDS011;72676;47.526;8.538;2023-10-31T07:15:59;5.33;;;1.40;;
73023;SDS011;72676;47.526;8.538;2023-10-31T07:18:25;8.30;;;2.40;;
73023;SDS011;72676;47.526;8.538;2023-10-31T07:20:52;6.67;;;1.47;;
73023;SDS011;72676;47.526;8.538;2023-10-31T07:23:18;25.20;;;5.13;;
73023;SDS011;72676;47.526;8.538;2023-10-31T07:25:44;6.60;;;1.60;;
73023;SDS011;72676;47.526;8.538;2023-10-31T07:28:11;44.63;;;4.10;;
73023;SDS011;72676;47.526;8.538;2023-10-31T07:30:38;18.97;;;3.30;;
73023;SDS011;72676;47.526;8.538;2023-10-31T07:33:04;6.00;;;1.53;;
73023;SDS011;72676;47.526;8.538;2023-10-31T07:35:31;7.60;;;2.20;;
73023;SDS011;72676;47.526;8.538;2023-10-31T07:37:57;8.37;;;2.03;;
73023;SDS011;72676;47.526;8.538;2023-10-31T07:40:23;8.20;;;1.90;;
73023;SDS011;72676;47.526;8.538;2023-10-31T07:42:50;4.90;;;1.33;;
73023;SDS011;72676;47.526;8.538;2023-10-31T07:45:16;6.90;;;1.80;;
73023;SDS011;72676;47.526;8.538;2023-10-31T07:47:43;7.43;;;1.80;;
73023;SDS011;72676;47.526;8.538;2023-10-31T07:50:09;13.77;;;2.37;;
73023;SDS011;72676;47.526;8.538;2023-10-31T07:52:36;12.13;;;2.27;;
73023;SDS011;72676;47.526;8.538;2023-10-31T07:55:02;6.60;;;2.17;;
73023;SDS011;72676;47.526;8.538;2023-10-31T07:57:29;8.90;;;2.70;;
73023;SDS011;72676;47.526;8.538;2023-10-31T07:59:55;6.83;;;1.67;;
73023;SDS011;72676;47.526;8.538;2023-10-31T08:02:21;3.97;;;1.40;;
73023;SDS011;72676;47.526;8.538;2023-10-31T08:04:48;10.03;;;1.87;;
73023;SDS011;72676;47.526;8.538;2023-10-31T08:07:14;5.67;;;1.50;;
73023;SDS011;72676;47.526;8.538;2023-10-31T08:09:41;10.23;;;1.60;;
73023;SDS011;72676;47.526;8.538;2023-10-31T08:12:08;4.30;;;1.40;;
73023;SDS011;72676;47.526;8.538;2023-10-31T08:14:35;9.17;;;2.10;;
73023;SDS011;72676;47.526;8.538;2023-10-31T08:17:01;5.20;;;1.63;;
73023;SDS011;72676;47.526;8.538;2023-10-31T08:19:28;8.80;;;1.67;;
73023;SDS011;72676;47.526;8.538;2023-10-31T08:21:54;7.67;;;1.67;;
73023;SDS011;72676;47.526;8.538;2023-10-31T08:24:24;13.40;;;2.53;;
73023;SDS011;72676;47.526;8.538;2023-10-31T08:26:51;12.90;;;2.57;;
73023;SDS011;72676;47.526;8.538;2023-10-31T08:29:17;27.47;;;4.90;;
73023;SDS011;72676;47.526;8.538;2023-10-31T08:31:43;14.30;;;1.90;;
73023;SDS011;72676;47.526;8.538;2023-10-31T08:34:10;8.10;;;1.77;;
73023;SDS011;72676;47.526;8.538;2023-10-31T08:36:36;7.10;;;1.80;;
73023;SDS011;72676;47.526;8.538;2023-10-31T08:39:03;5.33;;;1.43;;
73023;SDS011;72676;47.526;8.538;2023-10-31T08:41:29;12.43;;;1.47;;
73023;SDS011;72676;47.526;8.538;2023-10-31T08:43:56;13.57;;;2.20;;
73023;SDS011;72676;47.526;8.538;2023-10-31T08:46:24;5.27;;;1.43;;
73023;SDS011;72676;47.526;8.538;2023-10-31T08:48:50;12.60;;;3.30;;
73023;SDS011;72676;47.526;8.538;2023-10-31T08:51:17;8.70;;;1.60;;
73023;SDS011;72676;47.526;8.538;2023-10-31T08:53:44;7.80;;;1.63;;
73023;SDS011;72676;47.526;8.538;2023-10-31T08:56:10;5.73;;;1.30;;
73023;SDS011;72676;47.526;8.538;2023-10-31T08:58:37;11.73;;;1.60;;
73023;SDS011;72676;47.526;8.538;2023-10-31T09:01:03;10.50;;;1.80;;
73023;SDS011;72676;47.526;8.538;2023-10-31T09:03:30;10.73;;;2.70;;
73023;SDS011;72676;47.526;8.538;2023-10-31T09:05:58;9.57;;;1.60;;
73023;SDS011;72676;47.526;8.538;2023-10-31T09:08:24;4.80;;;1.40;;
73023;SDS011;72676;47.526;8.538;2023-10-31T09:10:51;3.57;;;1.17;;
73023;SDS011;72676;47.526;8.538;2023-10-31T09:13:17;7.57;;;1.43;;
73023;SDS011;72676;47.526;8.538;2023-10-31T09:15:44;9.97;;;1.70;;
73023;SDS011;72676;47.526;8.538;2023-10-31T09:18:12;13.13;;;2.03;;
73023;SDS011;72676;47.526;8.538;2023-10-31T09:20:39;7.03;;;1.70;;
73023;SDS011;72676;47.526;8.538;2023-10-31T09:23:05;6.77;;;1.50;;
73023;SDS011;72676;47.526;8.538;2023-10-31T09:25:32;6.83;;;1.50;;
73023;SDS011;72676;47.526;8.538;2023-10-31T09:27:59;4.97;;;1.20;;
73023;SDS011;72676;47.526;8.538;2023-10-31T09:30:27;4.30;;;1.07;;
73023;SDS011;72676;47.526;8.538;2023-10-31T09:32:53;5.27;;;1.40;;
73023;SDS011;72676;47.526;8.538;2023-10-31T09:35:20;6.10;;;1.50;;
73023;SDS011;72676;47.526;8.538;2023-10-31T09:37:46;6.47;;;2.00;;
73023;SDS011;72676;47.526;8.538;2023-10-31T09:40:15;6.90;;;1.37;;
73023;SDS011;72676;47.526;8.538;2023-10-31T09:42:41;7.13;;;1.67;;
73023;SDS011;72676;47.526;8.538;2023-10-31T09:45:08;10.70;;;1.50;;
73023;SDS011;72676;47.526;8.538;2023-10-31T09:47:35;4.93;;;1.77;;
73023;SDS011;72676;47.526;8.538;2023-10-31T09:50:02;10.30;;;1.73;;
73023;SDS011;72676;47.526;8.538;2023-10-31T09:52:29;8.93;;;1.23;;
73023;SDS011;72676;47.526;8.538;2023-10-31T09:54:56;12.30;;;1.97;;
73023;SDS011;72676;47.526;8.538;2023-10-31T09:57:22;8.80;;;1.53;;
73023;SDS011;72676;47.526;8.538;2023-10-31T09:59:49;8.77;;;1.50;;
73023;SDS011;72676;47.526;8.538;2023-10-31T10:02:16;6.50;;;1.50;;
73023;SDS011;72676;47.526;8.538;2023-10-31T10:04:43;6.37;;;1.90;;
73023;SDS011;72676;47.526;8.538;2023-10-31T10:07:13;5.70;;;1.77;;
73023;SDS011;72676;47.526;8.538;2023-10-31T10:09:46;6.90;;;2.20;;
73023;SDS011;72676;47.526;8.538;2023-10-31T10:12:15;5.83;;;1.43;;
73023;SDS011;72676;47.526;8.538;2023-10-31T10:14:50;3.40;;;1.30;;
73023;SDS011;72676;47.526;8.538;2023-10-31T10:17:17;5.77;;;1.50;;
73023;SDS011;72676;47.526;8.538;2023-10-31T10:19:47;3.40;;;1.50;;
73023;SDS011;72676;47.526;8.538;2023-10-31T10:22:14;6.80;;;1.83;;
73023;SDS011;72676;47.526;8.538;2023-10-31T10:24:41;7.07;;;1.70;;
73023;SDS011;72676;47.526;8.538;2023-10-31T10:27:08;7.77;;;1.83;;
73023;SDS011;72676;47.526;8.538;2023-10-31T10:29:35;4.17;;;1.77;;
73023;SDS011;72676;47.526;8.538;2023-10-31T10:32:06;6.20;;;1.60;;
73023;SDS011;72676;47.526;8.538;2023-10-31T10:34:35;6.63;;;1.60;;
73023;SDS011;72676;47.526;8.538;2023-10-31T10:37:03;4.67;;;1.50;;
73023;SDS011;72676;47.526;8.538;2023-10-31T10:39:32;8.10;;;1.70;;
73023;SDS011;72676;47.526;8.538;2023-10-31T10:42:01;7.30;;;1.60;;
73023;SDS011;72676;47.526;8.538;2023-10-31T10:47:03;5.53;;;1.50;;
73023;SDS011;72676;47.526;8.538;2023-10-31T10:49:35;13.03;;;2.00;;
73023;SDS011;72676;47.526;8.538;2023-10-31T10:52:10;8.47;;;1.63;;
73023;SDS011;72676;47.526;8.538;2023-10-31T10:57:38;6.67;;;1.67;;
73023;SDS011;72676;47.526;8.538;2023-10-31T11:00:11;6.13;;;1.70;;
73023;SDS011;72676;47.526;8.538;2023-10-31T11:02:39;5.50;;;1.30;;
73023;SDS011;72676;47.526;8.538;2023-10-31T11:05:09;4.27;;;1.40;;
73023;SDS011;72676;47.526;8.538;2023-10-31T11:07:36;6.83;;;1.67;;
73023;SDS011;72676;47.526;8.538;2023-10-31T11:10:04;4.70;;;1.60;;
73023;SDS011;72676;47.526;8.538;2023-10-31T11:12:31;4.50;;;1.40;;
73023;SDS011;72676;47.526;8.538;2023-10-31T11:14:59;6.07;;;1.50;;
73023;SDS011;72676;47.526;8.538;2023-10-31T11:17:36;6.40;;;1.50;;
73023;SDS011;72676;47.526;8.538;2023-10-31T11:20:06;5.87;;;1.70;;
73023;SDS011;72676;47.526;8.538;2023-10-31T11:22:41;4.50;;;1.40;;
73023;SDS011;72676;47.526;8.538;2023-10-31T11:25:11;8.10;;;1.70;;
73023;SDS011;72676;47.526;8.538;2023-10-31T11:27:51;8.10;;;2.00;;
73023;SDS011;72676;47.526;8.538;2023-10-31T11:30:29;4.53;;;1.30;;
73023;SDS011;72676;47.526;8.538;2023-10-31T11:32:58;2.33;;;1.13;;
73023;SDS011;72676;47.526;8.538;2023-10-31T11:35:25;6.00;;;1.47;;
73023;SDS011;72676;47.526;8.538;2023-10-31T11:40:29;4.47;;;1.73;;
73023;SDS011;72676;47.526;8.538;2023-10-31T11:42:58;4.67;;;1.20;;
73023;SDS011;72676;47.526;8.538;2023-10-31T11:45:29;5.20;;;1.43;;
73023;SDS011;72676;47.526;8.538;2023-10-31T11:47:56;5.13;;;1.20;;
73023;SDS011;72676;47.526;8.538;2023-10-31T11:50:24;3.73;;;1.30;;
73023;SDS011;72676;47.526;8.538;2023-10-31T11:52:58;3.07;;;1.30;;
73023;SDS011;72676;47.526;8.538;2023-10-31T11:55:25;3.30;;;1.20;;
73023;SDS011;72676;47.526;8.538;2023-10-31T11:57:52;4.33;;;1.13;;
73023;SDS011;72676;47.526;8.538;2023-10-31T12:00:21;4.07;;;1.23;;
73023;SDS011;72676;47.526;8.538;2023-10-31T12:02:59;5.13;;;1.30;;
73023;SDS011;72676;47.526;8.538;2023-10-31T12:05:26;3.67;;;1.20;;
73023;SDS011;72676;47.526;8.538;2023-10-31T12:07:53;12.33;;;1.20;;
73023;SDS011;72676;47.526;8.538;2023-10-31T12:10:27;2.63;;;1.07;;
73023;SDS011;72676;47.526;8.538;2023-10-31T12:12:57;3.57;;;1.30;;
73023;SDS011;72676;47.526;8.538;2023-10-31T12:15:25;2.27;;;0.97;;
73023;SDS011;72676;47.526;8.538;2023-10-31T12:17:51;3.93;;;1.07;;
73023;SDS011;72676;47.526;8.538;2023-10-31T12:20:18;5.57;;;1.10;;
73023;SDS011;72676;47.526;8.538;2023-10-31T12:22:45;6.53;;;1.10;;
73023;SDS011;72676;47.526;8.538;2023-10-31T12:25:11;1.70;;;0.80;;
73023;SDS011;72676;47.526;8.538;2023-10-31T12:27:44;4.60;;;1.07;;
73023;SDS011;72676;47.526;8.538;2023-10-31T12:30:17;2.77;;;1.40;;
73023;SDS011;72676;47.526;8.538;2023-10-31T12:32:45;6.50;;;1.27;;
73023;SDS011;72676;47.526;8.538;2023-10-31T12:35:20;5.83;;;1.27;;
73023;SDS011;72676;47.526;8.538;2023-10-31T12:37:48;2.17;;;0.90;;
73023;SDS011;72676;47.526;8.538;2023-10-31T12:40:19;2.40;;;0.87;;
73023;SDS011;72676;47.526;8.538;2023-10-31T12:42:47;2.60;;;0.93;;
73023;SDS011;72676;47.526;8.538;2023-10-31T12:45:16;1.90;;;0.90;;
73023;SDS011;72676;47.526;8.538;2023-10-31T12:47:44;2.73;;;1.00;;
73023;SDS011;72676;47.526;8.538;2023-10-31T12:50:15;2.00;;;0.90;;
73023;SDS011;72676;47.526;8.538;2023-10-31T12:52:54;5.37;;;0.70;;
73023;SDS011;72676;47.526;8.538;2023-10-31T12:55:24;6.73;;;0.93;;
73023;SDS011;72676;47.526;8.538;2023-10-31T12:57:52;3.47;;;0.90;;
73023;SDS011;72676;47.526;8.538;2023-10-31T13:00:20;1.73;;;0.80;;
73023;SDS011;72676;47.526;8.538;2023-10-31T13:02:52;1.60;;;0.80;;
73023;SDS011;72676;47.526;8.538;2023-10-31T13:05:26;4.40;;;0.70;;
73023;SDS011;72676;47.526;8.538;2023-10-31T13:07:54;2.03;;;0.90;;
73023;SDS011;72676;47.526;8.538;2023-10-31T13:10:23;3.13;;;0.83;;
73023;SDS011;72676;47.526;8.538;2023-10-31T13:12:51;1.80;;;0.70;;
73023;SDS011;72676;47.526;8.538;2023-10-31T13:15:19;1.50;;;0.70;;
73023;SDS011;72676;47.526;8.538;2023-10-31T13:17:47;3.77;;;0.80;;
73023;SDS011;72676;47.526;8.538;2023-10-31T13:20:14;1.20;;;0.70;;
73023;SDS011;72676;47.526;8.538;2023-10-31T13:22:42;2.57;;;0.77;;
73023;SDS011;72676;47.526;8.538;2023-10-31T13:25:10;2.93;;;0.70;;
73023;SDS011;72676;47.526;8.538;2023-10-31T13:27:37;2.40;;;0.90;;
73023;SDS011;72676;47.526;8.538;2023-10-31T13:30:07;2.60;;;0.80;;
73023;SDS011;72676;47.526;8.538;2023-10-31T13:32:34;1.57;;;0.73;;
73023;SDS011;72676;47.526;8.538;2023-10-31T13:35:01;1.50;;;0.80;;
73023;SDS011;72676;47.526;8.538;2023-10-31T13:37:28;2.23;;;0.87;;
73023;SDS011;72676;47.526;8.538;2023-10-31T13:39:54;1.83;;;0.70;;
73023;SDS011;72676;47.526;8.538;2023-10-31T13:42:21;18.53;;;1.13;;
73023;SDS011;72676;47.526;8.538;2023-10-31T13:44:48;1.50;;;0.60;;
73023;SDS011;72676;47.526;8.538;2023-10-31T13:47:14;2.20;;;0.50;;
73023;SDS011;72676;47.526;8.538;2023-10-31T13:49:41;1.10;;;0.60;;
73023;SDS011;72676;47.526;8.538;2023-10-31T13:52:07;2.67;;;0.70;;
73023;SDS011;72676;47.526;8.538;2023-10-31T13:54:34;2.70;;;0.70;;
73023;SDS011;72676;47.526;8.538;2023-10-31T13:57:01;2.27;;;0.67;;
73023;SDS011;72676;47.526;8.538;2023-10-31T13:59:27;1.10;;;0.60;;
73023;SDS011;72676;47.526;8.538;2023-10-31T14:01:54;1.60;;;0.60;;
73023;SDS011;72676;47.526;8.538;2023-10-31T14:04:20;1.00;;;0.60;;
73023;SDS011;72676;47.526;8.538;2023-10-31T14:06:47;1.57;;;0.90;;
73023;SDS011;72676;47.526;8.538;2023-10-31T14:09:14;2.50;;;0.50;;
73023;SDS011;72676;47.526;8.538;2023-10-31T14:11:41;1.90;;;0.70;;
73023;SDS011;72676;47.526;8.538;2023-10-31T14:14:08;0.90;;;0.50;;
73023;SDS011;72676;47.526;8.538;2023-10-31T14:16:39;1.10;;;0.70;;
73023;SDS011;72676;47.526;8.538;2023-10-31T14:19:07;1.10;;;0.60;;
73023;SDS011;72676;47.526;8.538;2023-10-31T14:21:34;0.80;;;0.50;;
73023;SDS011;72676;47.526;8.538;2023-10-31T14:24:01;1.30;;;0.60;;
73023;SDS011;72676;47.526;8.538;2023-10-31T14:26:37;1.40;;;0.60;;
73023;SDS011;72676;47.526;8.538;2023-10-31T14:29:06;1.40;;;0.53;;
73023;SDS011;72676;47.526;8.538;2023-10-31T14:31:37;2.30;;;0.90;;
73023;SDS011;72676;47.526;8.538;2023-10-31T14:34:04;1.00;;;0.60;;
73023;SDS011;72676;47.526;8.538;2023-10-31T14:36:31;0.90;;;0.53;;
73023;SDS011;72676;47.526;8.538;2023-10-31T14:38:58;1.57;;;0.60;;
73023;SDS011;72676;47.526;8.538;2023-10-31T14:41:24;1.00;;;0.50;;
73023;SDS011;72676;47.526;8.538;2023-10-31T14:43:51;1.20;;;0.60;;
73023;SDS011;72676;47.526;8.538;2023-10-31T14:46:17;1.47;;;0.60;;
73023;SDS011;72676;47.526;8.538;2023-10-31T14:48:44;1.57;;;0.60;;
73023;SDS011;72676;47.526;8.538;2023-10-31T14:51:10;1.00;;;0.80;;
73023;SDS011;72676;47.526;8.538;2023-10-31T14:53:41;3.07;;;0.60;;
73023;SDS011;72676;47.526;8.538;2023-10-31T14:56:07;1.00;;;0.60;;